sensor_id;sensor_type;location;lat;lon;timestamp;pressure;altitude;pressure_sealevel;temperature;humidity
24013;BME280;12220;50.194;18.948;2023-02-12T00:01:12;103189.82;;;5.66;81.87
24013;BME280;12220;50.194;18.948;2023-02-12T00:03:18;103196.20;;;5.65;81.79
24013;BME280;12220;50.194;18.948;2023-02-12T00:05:23;103216.10;;;5.67;81.60
24013;BME280;12220;50.194;18.948;2023-02-12T00:07:25;103204.34;;;5.67;81.78
24013;BME280;12220;50.194;18.948;2023-02-12T00:09:29;103211.56;;;5.66;81.77
24013;BME280;12220;50.194;18.948;2023-02-12T00:11:31;103207.96;;;5.66;81.79
24013;BME280;12220;50.194;18.948;2023-02-12T00:13:39;103205.25;;;5.66;81.76
24013;BME280;12220;50.194;18.948;2023-02-12T00:15:41;103206.13;;;5.66;81.76
24013;BME280;12220;50.194;18.948;2023-02-12T00:17:43;103209.77;;;5.67;81.76
24013;BME280;12220;50.194;18.948;2023-02-12T00:19:46;103204.34;;;5.67;81.75
24013;BME280;12220;50.194;18.948;2023-02-12T00:21:53;103205.25;;;5.66;81.69
24013;BME280;12220;50.194;18.948;2023-02-12T00:23:55;103212.50;;;5.65;81.69
24013;BME280;12220;50.194;18.948;2023-02-12T00:25:57;103215.25;;;5.64;81.69
24013;BME280;12220;50.194;18.948;2023-02-12T00:28:01;103209.80;;;5.64;81.71
24013;BME280;12220;50.194;18.948;2023-02-12T00:30:09;103215.25;;;5.64;81.75
24013;BME280;12220;50.194;18.948;2023-02-12T00:32:10;103216.13;;;5.64;81.82
24013;BME280;12220;50.194;18.948;2023-02-12T00:34:14;103218.82;;;5.66;81.84
24013;BME280;12220;50.194;18.948;2023-02-12T00:36:19;103215.22;;;5.65;81.81
24013;BME280;12220;50.194;18.948;2023-02-12T00:38:24;103220.64;;;5.67;81.78
24013;BME280;12220;50.194;18.948;2023-02-12T00:40:25;103220.64;;;5.67;81.79
24013;BME280;12220;50.194;18.948;2023-02-12T00:42:27;103266.87;;;5.67;81.81
24013;BME280;12220;50.194;18.948;2023-02-12T00:44:29;103226.95;;;5.69;81.83
24013;BME280;12220;50.194;18.948;2023-02-12T00:46:39;103219.70;;;5.68;81.81
24013;BME280;12220;50.194;18.948;2023-02-12T00:48:41;103221.51;;;5.69;81.85
24013;BME280;12220;50.194;18.948;2023-02-12T00:50:49;103229.69;;;5.67;81.81
24013;BME280;12220;50.194;18.948;2023-02-12T00:52:50;103227.86;;;5.68;81.82
24013;BME280;12220;50.194;18.948;2023-02-12T00:54:54;103226.97;;;5.67;81.83
24013;BME280;12220;50.194;18.948;2023-02-12T00:56:55;103225.16;;;5.66;81.87
24013;BME280;12220;50.194;18.948;2023-02-12T00:59:01;103223.37;;;5.67;81.90
24013;BME280;12220;50.194;18.948;2023-02-12T01:01:03;103226.97;;;5.67;81.96
24013;BME280;12220;50.194;18.948;2023-02-12T01:03:09;103229.67;;;5.69;81.97
24013;BME280;12220;50.194;18.948;2023-02-12T01:07:30;103233.30;;;5.68;81.96
24013;BME280;12220;50.194;18.948;2023-02-12T01:09:32;103236.01;;;5.68;81.94
24013;BME280;12220;50.194;18.948;2023-02-12T01:11:35;103238.73;;;5.68;81.92
24013;BME280;12220;50.194;18.948;2023-02-12T01:13:37;103234.22;;;5.68;81.96
24013;BME280;12220;50.194;18.948;2023-02-12T01:15:39;103236.94;;;5.68;81.93
24013;BME280;12220;50.194;18.948;2023-02-12T01:17:44;103238.71;;;5.69;81.95
24013;BME280;12220;50.194;18.948;2023-02-12T01:19:56;103242.38;;;5.68;81.94
24013;BME280;12220;50.194;18.948;2023-02-12T01:22:01;103245.98;;;5.69;81.97
24013;BME280;12220;50.194;18.948;2023-02-12T01:24:03;103243.27;;;5.69;82.00
24013;BME280;12220;50.194;18.948;2023-02-12T01:26:04;103244.18;;;5.68;82.00
24013;BME280;12220;50.194;18.948;2023-02-12T01:28:10;103245.09;;;5.68;82.04
24013;BME280;12220;50.194;18.948;2023-02-12T01:30:13;103252.33;;;5.68;82.06
24013;BME280;12220;50.194;18.948;2023-02-12T01:32:15;103251.43;;;5.69;82.03
24013;BME280;12220;50.194;18.948;2023-02-12T01:34:16;103252.30;;;5.69;82.02
24013;BME280;12220;50.194;18.948;2023-02-12T01:36:23;103257.77;;;5.71;82.04
24013;BME280;12220;50.194;18.948;2023-02-12T01:38:25;103260.48;;;5.71;82.07
24013;BME280;12220;50.194;18.948;2023-02-12T01:40:26;103261.35;;;5.73;82.03
24013;BME280;12220;50.194;18.948;2023-02-12T01:42:28;103262.24;;;5.73;81.99
24013;BME280;12220;50.194;18.948;2023-02-12T01:44:43;103267.69;;;5.73;81.98
24013;BME280;12220;50.194;18.948;2023-02-12T01:48:58;103268.64;;;5.71;81.99
24013;BME280;12220;50.194;18.948;2023-02-12T01:51:01;103269.53;;;5.71;82.02
24013;BME280;12220;50.194;18.948;2023-02-12T01:53:04;103271.36;;;5.71;82.15
24013;BME280;12220;50.194;18.948;2023-02-12T01:55:07;103265.02;;;5.69;82.06
24013;BME280;12220;50.194;18.948;2023-02-12T01:57:11;103264.13;;;5.68;82.06
24013;BME280;12220;50.194;18.948;2023-02-12T01:59:16;103279.52;;;5.68;82.10
24013;BME280;12220;50.194;18.948;2023-02-12T02:01:23;103294.92;;;5.69;82.11
24013;BME280;12220;50.194;18.948;2023-02-12T02:03:25;103288.61;;;5.67;82.13
24013;BME280;12220;50.194;18.948;2023-02-12T02:05:41;103280.45;;;5.67;82.18
24013;BME280;12220;50.194;18.948;2023-02-12T02:07:41;103275.00;;;5.68;82.23
24013;BME280;12220;50.194;18.948;2023-02-12T02:09:44;103288.59;;;5.68;82.21
24013;BME280;12220;50.194;18.948;2023-02-12T02:11:55;103297.62;;;5.70;82.28
24013;BME280;12220;50.194;18.948;2023-02-12T02:14:16;103287.67;;;5.71;82.30
24013;BME280;12220;50.194;18.948;2023-02-12T02:16:41;103293.12;;;5.71;82.29
24013;BME280;12220;50.194;18.948;2023-02-12T02:18:54;103309.41;;;5.72;82.29
24013;BME280;12220;50.194;18.948;2023-02-12T02:23:29;103311.17;;;5.75;82.39
24013;BME280;12220;50.194;18.948;2023-02-12T02:25:43;103311.16;;;5.76;82.30
24013;BME280;12220;50.194;18.948;2023-02-12T02:32:22;103314.80;;;5.79;82.21
24013;BME280;12220;50.194;18.948;2023-02-12T02:43:58;103327.45;;;5.78;82.21
24013;BME280;12220;50.194;18.948;2023-02-12T02:46:06;103323.85;;;5.78;82.18
24013;BME280;12220;50.194;18.948;2023-02-12T02:48:19;103329.28;;;5.78;82.21
24013;BME280;12220;50.194;18.948;2023-02-12T02:50:24;103346.51;;;5.76;82.21
24013;BME280;12220;50.194;18.948;2023-02-12T02:52:34;103345.61;;;5.78;82.26
24013;BME280;12220;50.194;18.948;2023-02-12T02:54:44;103337.44;;;5.79;82.24
24013;BME280;12220;50.194;18.948;2023-02-12T02:57:09;103337.44;;;5.79;82.24
24013;BME280;12220;50.194;18.948;2023-02-12T02:59:24;103331.98;;;5.81;82.21
24013;BME280;12220;50.194;18.948;2023-02-12T03:01:33;103335.62;;;5.81;82.27
24013;BME280;12220;50.194;18.948;2023-02-12T03:03:42;103347.40;;;5.80;82.24
24013;BME280;12220;50.194;18.948;2023-02-12T03:05:50;103356.45;;;5.81;82.26
24013;BME280;12220;50.194;18.948;2023-02-12T03:07:59;103357.38;;;5.81;82.29
24013;BME280;12220;50.194;18.948;2023-02-12T03:10:14;103358.25;;;5.83;82.29
24013;BME280;12220;50.194;18.948;2023-02-12T03:12:37;103361.84;;;5.85;82.28
24013;BME280;12220;50.194;18.948;2023-02-12T03:15:02;103375.46;;;5.87;82.22
24013;BME280;12220;50.194;18.948;2023-02-12T03:17:11;103368.19;;;5.87;82.16
24013;BME280;12220;50.194;18.948;2023-02-12T03:19:20;103371.81;;;5.88;82.12
24013;BME280;12220;50.194;18.948;2023-02-12T03:25:58;103386.34;;;5.82;82.08
24013;BME280;12220;50.194;18.948;2023-02-12T03:28:09;103391.81;;;5.81;82.07
24013;BME280;12220;50.194;18.948;2023-02-12T03:30:12;103409.95;;;5.80;82.09
24013;BME280;12220;50.194;18.948;2023-02-12T03:32:26;103405.41;;;5.79;82.11
24013;BME280;12220;50.194;18.948;2023-02-12T03:34:40;103399.09;;;5.79;82.09
24013;BME280;12220;50.194;18.948;2023-02-12T03:36:50;103399.98;;;5.79;82.09
24013;BME280;12220;50.194;18.948;2023-02-12T03:38:56;103404.52;;;5.79;82.06
24013;BME280;12220;50.194;18.948;2023-02-12T03:43:28;103420.84;;;5.79;82.02
24013;BME280;12220;50.194;18.948;2023-02-12T03:48:09;103427.19;;;5.78;81.99
24013;BME280;12220;50.194;18.948;2023-02-12T03:50:35;103429.88;;;5.79;81.96
24013;BME280;12220;50.194;18.948;2023-02-12T03:52:43;103434.41;;;5.80;81.92
24013;BME280;12220;50.194;18.948;2023-02-12T03:54:45;103441.69;;;5.80;81.91
24013;BME280;12220;50.194;18.948;2023-02-12T03:56:54;103448.90;;;5.81;81.88
24013;BME280;12220;50.194;18.948;2023-02-12T03:58:57;103454.34;;;5.81;81.81
24013;BME280;12220;50.194;18.948;2023-02-12T04:01:01;103452.55;;;5.81;81.71
24013;BME280;12220;50.194;18.948;2023-02-12T04:03:04;103451.63;;;5.79;81.72
24013;BME280;12220;50.194;18.948;2023-02-12T04:05:07;103451.63;;;5.79;81.69
24013;BME280;12220;50.194;18.948;2023-02-12T04:07:10;103458.90;;;5.79;81.64
24013;BME280;12220;50.194;18.948;2023-02-12T04:09:13;103463.41;;;5.78;81.62
24013;BME280;12220;50.194;18.948;2023-02-12T04:13:37;103473.41;;;5.78;81.59
24013;BME280;12220;50.194;18.948;2023-02-12T04:20:16;103484.29;;;5.76;81.43
24013;BME280;12220;50.194;18.948;2023-02-12T04:27:11;103484.31;;;5.74;81.25
24013;BME280;12220;50.194;18.948;2023-02-12T04:31:48;103484.31;;;5.73;81.31
24013;BME280;12220;50.194;18.948;2023-02-12T04:36:26;103487.93;;;5.73;81.22
24013;BME280;12220;50.194;18.948;2023-02-12T04:38:40;103488.85;;;5.74;81.06
24013;BME280;12220;50.194;18.948;2023-02-12T04:40:43;103492.51;;;5.68;80.99
24013;BME280;12220;50.194;18.948;2023-02-12T04:42:51;103496.13;;;5.66;80.94
24013;BME280;12220;50.194;18.948;2023-02-12T04:44:53;103495.27;;;5.62;80.96
24013;BME280;12220;50.194;18.948;2023-02-12T04:46:55;103501.61;;;5.59;80.87
24013;BME280;12220;50.194;18.948;2023-02-12T04:48:57;103506.16;;;5.56;80.86
24013;BME280;12220;50.194;18.948;2023-02-12T04:51:02;103546.05;;;5.52;80.92
24013;BME280;12220;50.194;18.948;2023-02-12T04:53:03;103513.44;;;5.49;80.97
24013;BME280;12220;50.194;18.948;2023-02-12T04:55:05;103519.79;;;5.47;81.05
24013;BME280;12220;50.194;18.948;2023-02-12T04:57:07;103511.65;;;5.45;81.10
24013;BME280;12220;50.194;18.948;2023-02-12T04:59:10;103515.25;;;5.46;81.10
24013;BME280;12220;50.194;18.948;2023-02-12T05:01:18;103515.25;;;5.46;81.13
24013;BME280;12220;50.194;18.948;2023-02-12T05:03:19;103527.05;;;5.46;81.15
24013;BME280;12220;50.194;18.948;2023-02-12T05:05:21;103527.05;;;5.46;81.18
24013;BME280;12220;50.194;18.948;2023-02-12T05:07:22;103527.04;;;5.48;81.14
24013;BME280;12220;50.194;18.948;2023-02-12T05:09:33;103539.71;;;5.47;81.01
24013;BME280;12220;50.194;18.948;2023-02-12T05:11:35;103537.91;;;5.48;81.05
24013;BME280;12220;50.194;18.948;2023-02-12T05:13:37;103535.20;;;5.46;81.02
24013;BME280;12220;50.194;18.948;2023-02-12T05:15:38;103533.38;;;5.45;80.90
24013;BME280;12220;50.194;18.948;2023-02-12T05:17:48;103544.25;;;5.45;80.74
24013;BME280;12220;50.194;18.948;2023-02-12T05:19:50;103543.34;;;5.43;80.77
24013;BME280;12220;50.194;18.948;2023-02-12T05:21:51;103546.08;;;5.40;80.72
24013;BME280;12220;50.194;18.948;2023-02-12T05:23:53;103552.44;;;5.39;80.68
24013;BME280;12220;50.194;18.948;2023-02-12T05:26:06;103555.17;;;5.36;80.64
24013;BME280;12220;50.194;18.948;2023-02-12T05:28:08;103559.70;;;5.34;80.59
24013;BME280;12220;50.194;18.948;2023-02-12T05:30:10;103566.95;;;5.32;80.52
24013;BME280;12220;50.194;18.948;2023-02-12T05:32:11;103563.33;;;5.27;80.46
24013;BME280;12220;50.194;18.948;2023-02-12T05:34:18;103568.77;;;5.23;80.52
24013;BME280;12220;50.194;18.948;2023-02-12T05:36:22;103568.79;;;5.20;80.68
24013;BME280;12220;50.194;18.948;2023-02-12T05:38:24;103570.62;;;5.20;80.75
24013;BME280;12220;50.194;18.948;2023-02-12T05:40:26;103570.62;;;5.20;80.80
24013;BME280;12220;50.194;18.948;2023-02-12T05:42:33;103578.76;;;5.21;80.83
24013;BME280;12220;50.194;18.948;2023-02-12T05:44:37;103576.94;;;5.20;80.85
24013;BME280;12220;50.194;18.948;2023-02-12T05:46:40;103587.80;;;5.22;80.87
24013;BME280;12220;50.194;18.948;2023-02-12T05:48:41;103584.18;;;5.23;80.85
24013;BME280;12220;50.194;18.948;2023-02-12T05:50:48;103595.95;;;5.23;80.79
24013;BME280;12220;50.194;18.948;2023-02-12T05:52:50;103600.48;;;5.24;80.73
24013;BME280;12220;50.194;18.948;2023-02-12T05:54:51;103596.85;;;5.24;80.67
24013;BME280;12220;50.194;18.948;2023-02-12T05:56:53;103606.81;;;5.23;80.60
24013;BME280;12220;50.194;18.948;2023-02-12T05:59:06;103608.64;;;5.23;80.55
24013;BME280;12220;50.194;18.948;2023-02-12T06:03:16;103624.01;;;5.21;80.39
24013;BME280;12220;50.194;18.948;2023-02-12T06:05:18;103624.95;;;5.20;80.34
24013;BME280;12220;50.194;18.948;2023-02-12T06:07:21;103624.04;;;5.18;80.34
24013;BME280;12220;50.194;18.948;2023-02-12T06:09:24;103618.59;;;5.18;80.37
24013;BME280;12220;50.194;18.948;2023-02-12T06:11:26;103632.18;;;5.19;80.38
24013;BME280;12220;50.194;18.948;2023-02-12T06:13:29;103634.90;;;5.16;80.38
24013;BME280;12220;50.194;18.948;2023-02-12T06:15:36;103636.72;;;5.17;80.34
24013;BME280;12220;50.194;18.948;2023-02-12T06:17:38;103643.04;;;5.16;80.32
24013;BME280;12220;50.194;18.948;2023-02-12T06:19:45;103644.88;;;5.14;80.29
24013;BME280;12220;50.194;18.948;2023-02-12T06:21:46;103654.82;;;5.14;80.30
24013;BME280;12220;50.194;18.948;2023-02-12T06:23:52;103654.82;;;5.11;80.30
24013;BME280;12220;50.194;18.948;2023-02-12T06:25:57;103660.25;;;5.09;80.37
24013;BME280;12220;50.194;18.948;2023-02-12T06:27:59;103656.64;;;5.09;80.45
24013;BME280;12220;50.194;18.948;2023-02-12T06:30:01;103664.80;;;5.09;80.52
24013;BME280;12220;50.194;18.948;2023-02-12T06:32:07;103664.80;;;5.09;80.56
24013;BME280;12220;50.194;18.948;2023-02-12T06:34:11;103666.59;;;5.08;80.59
24013;BME280;12220;50.194;18.948;2023-02-12T06:36:13;103669.30;;;5.10;80.63
24013;BME280;12220;50.194;18.948;2023-02-12T06:38:18;103674.77;;;5.11;80.65
24013;BME280;12220;50.194;18.948;2023-02-12T06:40:30;103673.83;;;5.12;80.64
24013;BME280;12220;50.194;18.948;2023-02-12T06:42:43;103679.26;;;5.12;80.58
24013;BME280;12220;50.194;18.948;2023-02-12T06:44:44;103680.19;;;5.14;80.55
24013;BME280;12220;50.194;18.948;2023-02-12T06:47:09;103688.34;;;5.13;80.53
24013;BME280;12220;50.194;18.948;2023-02-12T06:49:14;103680.19;;;5.11;80.42
24013;BME280;12220;50.194;18.948;2023-02-12T06:51:17;103691.03;;;5.10;80.43
24013;BME280;12220;50.194;18.948;2023-02-12T06:53:23;103692.86;;;5.09;80.64
24013;BME280;12220;50.194;18.948;2023-02-12T06:55:25;103693.75;;;5.08;80.44
24013;BME280;12220;50.194;18.948;2023-02-12T06:57:30;103693.75;;;5.08;80.44
24013;BME280;12220;50.194;18.948;2023-02-12T06:59:32;103702.82;;;5.07;80.42
24013;BME280;12220;50.194;18.948;2023-02-12T07:01:35;103702.82;;;5.07;80.37
24013;BME280;12220;50.194;18.948;2023-02-12T07:03:38;103700.11;;;5.04;80.31
24013;BME280;12220;50.194;18.948;2023-02-12T07:05:39;103710.05;;;5.03;80.26
24013;BME280;12220;50.194;18.948;2023-02-12T07:07:41;103710.95;;;4.98;80.14
24013;BME280;12220;50.194;18.948;2023-02-12T07:09:50;103709.16;;;4.95;80.06
24013;BME280;12220;50.194;18.948;2023-02-12T07:11:51;103707.34;;;4.91;79.99
24013;BME280;12220;50.194;18.948;2023-02-12T07:13:53;103724.52;;;4.87;79.96
24013;BME280;12220;50.194;18.948;2023-02-12T07:15:55;103710.95;;;4.82;79.84
24013;BME280;12220;50.194;18.948;2023-02-12T07:18:05;103721.80;;;4.78;79.82
24013;BME280;12220;50.194;18.948;2023-02-12T07:20:12;103715.45;;;4.76;79.79
24013;BME280;12220;50.194;18.948;2023-02-12T07:22:19;103717.26;;;4.72;79.78
24013;BME280;12220;50.194;18.948;2023-02-12T07:24:49;103717.26;;;4.69;79.73
24013;BME280;12220;50.194;18.948;2023-02-12T07:26:40;103729.91;;;4.67;79.73
24013;BME280;12220;50.194;18.948;2023-02-12T07:28:51;103729.91;;;4.64;79.67
24013;BME280;12220;50.194;18.948;2023-02-12T07:30:53;103736.23;;;4.63;79.68
24013;BME280;12220;50.194;18.948;2023-02-12T07:32:54;103743.47;;;4.61;79.60
24013;BME280;12220;50.194;18.948;2023-02-12T07:34:56;103740.75;;;4.59;79.54
24013;BME280;12220;50.194;18.948;2023-02-12T07:37:16;103745.25;;;4.56;79.48
24013;BME280;12220;50.194;18.948;2023-02-12T07:39:16;103749.77;;;4.49;79.26
24013;BME280;12220;50.194;18.948;2023-02-12T07:43:29;103759.68;;;4.41;79.27
24013;BME280;12220;50.194;18.948;2023-02-12T07:45:33;103766.92;;;4.37;79.32
24013;BME280;12220;50.194;18.948;2023-02-12T07:47:44;103774.13;;;4.35;79.27
24013;BME280;12220;50.194;18.948;2023-02-12T07:49:46;103777.71;;;4.31;79.25
24013;BME280;12220;50.194;18.948;2023-02-12T07:51:48;103783.13;;;4.29;79.31
24013;BME280;12220;50.194;18.948;2023-02-12T07:53:50;103785.84;;;4.28;79.34
24013;BME280;12220;50.194;18.948;2023-02-12T07:56:12;103788.56;;;4.29;79.41
24013;BME280;12220;50.194;18.948;2023-02-12T07:58:21;103780.42;;;4.31;79.44
24013;BME280;12220;50.194;18.948;2023-02-12T08:00:22;103784.07;;;4.31;79.45
24013;BME280;12220;50.194;18.948;2023-02-12T08:02:24;103787.68;;;4.35;79.53
24013;BME280;12220;50.194;18.948;2023-02-12T08:04:25;103788.63;;;4.39;79.50
24013;BME280;12220;50.194;18.948;2023-02-12T08:06:38;103792.25;;;4.42;79.39
24013;BME280;12220;50.194;18.948;2023-02-12T08:08:40;103795.90;;;4.44;79.33
24013;BME280;12220;50.194;18.948;2023-02-12T08:10:41;103786.83;;;4.45;79.25
24013;BME280;12220;50.194;18.948;2023-02-12T08:12:43;103794.08;;;4.48;79.24
24013;BME280;12220;50.194;18.948;2023-02-12T08:14:51;103800.41;;;4.48;79.10
24013;BME280;12220;50.194;18.948;2023-02-12T08:16:54;103807.66;;;4.46;78.98
24013;BME280;12220;50.194;18.948;2023-02-12T08:18:56;103817.62;;;4.47;78.95
24013;BME280;12220;50.194;18.948;2023-02-12T08:21:05;103823.05;;;4.49;78.90
24013;BME280;12220;50.194;18.948;2023-02-12T08:23:07;103822.11;;;4.48;78.93
24013;BME280;12220;50.194;18.948;2023-02-12T08:25:08;103818.51;;;4.49;78.87
24013;BME280;12220;50.194;18.948;2023-02-12T08:27:10;103816.69;;;4.48;78.70
24013;BME280;12220;50.194;18.948;2023-02-12T08:29:14;103824.83;;;4.47;78.67
24013;BME280;12220;50.194;18.948;2023-02-12T08:31:23;103820.31;;;4.43;78.47
24013;BME280;12220;50.194;18.948;2023-02-12T08:33:25;103819.38;;;4.41;78.41
24013;BME280;12220;50.194;18.948;2023-02-12T08:35:26;103825.69;;;4.38;78.16
24013;BME280;12220;50.194;18.948;2023-02-12T08:37:28;103828.38;;;4.33;78.02
24013;BME280;12220;50.194;18.948;2023-02-12T08:39:36;103829.26;;;4.31;77.92
24013;BME280;12220;50.194;18.948;2023-02-12T08:41:38;103820.22;;;4.27;77.68
24013;BME280;12220;50.194;18.948;2023-02-12T08:48:35;103833.74;;;4.19;77.59
24013;BME280;12220;50.194;18.948;2023-02-12T08:50:36;103835.53;;;4.22;77.65
24013;BME280;12220;50.194;18.948;2023-02-12T08:52:46;103837.38;;;4.25;77.62
24013;BME280;12220;50.194;18.948;2023-02-12T08:54:47;103843.73;;;4.28;77.43
24013;BME280;12220;50.194;18.948;2023-02-12T08:56:50;103835.59;;;4.27;76.98
24013;BME280;12220;50.194;18.948;2023-02-12T08:58:56;103851.88;;;4.27;76.89
24013;BME280;12220;50.194;18.948;2023-02-12T09:01:01;103851.88;;;4.27;76.79
24013;BME280;12220;50.194;18.948;2023-02-12T09:03:03;103846.45;;;4.28;76.77
24013;BME280;12220;50.194;18.948;2023-02-12T09:05:05;103849.18;;;4.30;76.71
24013;BME280;12220;50.194;18.948;2023-02-12T09:07:07;103849.18;;;4.31;76.38
24013;BME280;12220;50.194;18.948;2023-02-12T09:09:16;103850.98;;;4.32;76.37
24013;BME280;12220;50.194;18.948;2023-02-12T09:11:24;103851.91;;;4.33;76.28
24013;BME280;12220;50.194;18.948;2023-02-12T09:13:35;103643.25;;;3.11;75.98
24013;BME280;12220;50.194;18.948;2023-02-12T09:15:45;103852.80;;;4.32;75.89
24013;BME280;12220;50.194;18.948;2023-02-12T09:17:47;103852.80;;;4.32;75.61
24013;BME280;12220;50.194;18.948;2023-02-12T09:19:59;103862.73;;;4.28;75.29
24013;BME280;12220;50.194;18.948;2023-02-12T09:22:02;103863.63;;;4.27;75.39
24013;BME280;12220;50.194;18.948;2023-02-12T09:24:04;103860.91;;;4.27;75.44
24013;BME280;12220;50.194;18.948;2023-02-12T09:26:07;103864.52;;;4.31;75.46
24013;BME280;12220;50.194;18.948;2023-02-12T09:28:14;103870.88;;;4.33;75.27
24013;BME280;12220;50.194;18.948;2023-02-12T09:30:15;103877.22;;;4.35;75.12
24013;BME280;12220;50.194;18.948;2023-02-12T09:32:17;103867.31;;;4.37;74.91
24013;BME280;12220;50.194;18.948;2023-02-12T09:34:19;103867.32;;;4.39;74.71
24013;BME280;12220;50.194;18.948;2023-02-12T09:36:30;103878.17;;;4.39;74.43
24013;BME280;12220;50.194;18.948;2023-02-12T09:38:32;103882.68;;;4.40;74.35
24013;BME280;12220;50.194;18.948;2023-02-12T09:47:22;103894.51;;;4.49;74.15
24013;BME280;12220;50.194;18.948;2023-02-12T09:51:50;103894.59;;;4.60;74.08
24013;BME280;12220;50.194;18.948;2023-02-12T09:54:11;103895.48;;;4.61;73.65
24013;BME280;12220;50.194;18.948;2023-02-12T09:56:16;103897.30;;;4.62;73.23
24013;BME280;12220;50.194;18.948;2023-02-12T09:58:29;103894.55;;;4.57;73.18
24013;BME280;12220;50.194;18.948;2023-02-12T10:00:30;103896.36;;;4.57;73.08
24013;BME280;12220;50.194;18.948;2023-02-12T10:02:38;103659.59;;;3.22;72.94
24013;BME280;12220;50.194;18.948;2023-02-12T10:04:41;103892.75;;;4.54;72.70
24013;BME280;12220;50.194;18.948;2023-02-12T10:07:00;103893.63;;;4.52;72.73
24013;BME280;12220;50.194;18.948;2023-02-12T10:09:09;103905.40;;;4.57;72.92
24013;BME280;12220;50.194;18.948;2023-02-12T10:15:49;103893.66;;;4.58;72.12
24013;BME280;12220;50.194;18.948;2023-02-12T10:18:04;103900.91;;;4.61;72.01
24013;BME280;12220;50.194;18.948;2023-02-12T10:29:45;103908.24;;;4.80;71.90
24013;BME280;12220;50.194;18.948;2023-02-12T10:38:34;103911.88;;;4.79;70.60
24013;BME280;12220;50.194;18.948;2023-02-12T10:40:42;103918.21;;;4.81;70.64
24013;BME280;12220;50.194;18.948;2023-02-12T10:42:51;103917.32;;;4.82;70.68
24013;BME280;12220;50.194;18.948;2023-02-12T10:44:53;103915.50;;;4.84;70.76
24013;BME280;12220;50.194;18.948;2023-02-12T10:46:55;103916.45;;;4.89;70.74
24013;BME280;12220;50.194;18.948;2023-02-12T10:48:57;103908.31;;;4.91;70.35
24013;BME280;12220;50.194;18.948;2023-02-12T10:53:33;103911.03;;;4.96;70.79
24013;BME280;12220;50.194;18.948;2023-02-12T10:55:35;103918.31;;;5.00;70.89
24013;BME280;12220;50.194;18.948;2023-02-12T10:57:38;103914.71;;;5.04;70.67
24013;BME280;12220;50.194;18.948;2023-02-12T10:59:41;103672.53;;;3.70;70.29
24013;BME280;12220;50.194;18.948;2023-02-12T11:01:46;103909.28;;;5.07;70.24
24013;BME280;12220;50.194;18.948;2023-02-12T11:03:48;103904.75;;;5.08;70.37
24013;BME280;12220;50.194;18.948;2023-02-12T11:05:49;103910.18;;;5.11;70.44
24013;BME280;12220;50.194;18.948;2023-02-12T11:07:51;103910.18;;;5.11;70.36
24013;BME280;12220;50.194;18.948;2023-02-12T11:10:00;103720.48;;;3.78;70.14
24013;BME280;12220;50.194;18.948;2023-02-12T11:12:02;103918.34;;;5.12;70.26
24013;BME280;12220;50.194;18.948;2023-02-12T11:14:08;103912.91;;;5.12;70.25
24013;BME280;12220;50.194;18.948;2023-02-12T11:16:12;103908.40;;;5.13;70.26
24013;BME280;12220;50.194;18.948;2023-02-12T11:18:23;103916.54;;;5.11;69.83
24013;BME280;12220;50.194;18.948;2023-02-12T11:22:58;103907.47;;;5.15;70.11
24013;BME280;12220;50.194;18.948;2023-02-12T11:25:03;103914.73;;;5.13;70.08
24013;BME280;12220;50.194;18.948;2023-02-12T11:27:21;103907.47;;;5.15;70.20
24013;BME280;12220;50.194;18.948;2023-02-12T11:29:23;103911.12;;;5.19;70.33
24013;BME280;12220;50.194;18.948;2023-02-12T11:31:31;103915.67;;;5.23;70.30
24013;BME280;12220;50.194;18.948;2023-02-12T11:33:35;103910.24;;;5.24;70.26
24013;BME280;12220;50.194;18.948;2023-02-12T11:40:03;103675.37;;;3.91;69.99
24013;BME280;12220;50.194;18.948;2023-02-12T11:44:21;103923.83;;;5.24;70.11
24013;BME280;12220;50.194;18.948;2023-02-12T11:46:25;103915.69;;;5.24;70.14
24013;BME280;12220;50.194;18.948;2023-02-12T11:48:33;103917.45;;;5.22;70.05
24013;BME280;12220;50.194;18.948;2023-02-12T11:50:38;103921.11;;;5.21;69.87
24013;BME280;12220;50.194;18.948;2023-02-12T11:52:40;103913.84;;;5.22;69.98
24013;BME280;12220;50.194;18.948;2023-02-12T11:54:45;103906.59;;;5.22;69.96
24013;BME280;12220;50.194;18.948;2023-02-12T11:56:47;103913.85;;;5.25;70.17
24013;BME280;12220;50.194;18.948;2023-02-12T11:58:50;103912.96;;;5.29;70.25
24013;BME280;12220;50.194;18.948;2023-02-12T12:01:02;103911.15;;;5.31;69.85
24013;BME280;12220;50.194;18.948;2023-02-12T12:03:24;103914.80;;;5.33;70.04
24013;BME280;12220;50.194;18.948;2023-02-12T12:05:38;103914.80;;;5.36;70.03
24013;BME280;12220;50.194;18.948;2023-02-12T12:07:45;103914.80;;;5.39;70.03
24013;BME280;12220;50.194;18.948;2023-02-12T12:09:59;103923.85;;;5.38;69.79
24013;BME280;12220;50.194;18.948;2023-02-12T12:12:17;103914.80;;;5.38;69.79
24013;BME280;12220;50.194;18.948;2023-02-12T12:16:43;103924.78;;;5.37;69.85
24013;BME280;12220;50.194;18.948;2023-02-12T12:19:05;103910.27;;;5.37;69.89
24013;BME280;12220;50.194;18.948;2023-02-12T12:23:43;103910.27;;;5.38;69.96
24013;BME280;12220;50.194;18.948;2023-02-12T12:25:49;103921.13;;;5.38;70.00
24013;BME280;12220;50.194;18.948;2023-02-12T12:27:58;103922.05;;;5.39;69.84
24013;BME280;12220;50.194;18.948;2023-02-12T12:30:14;103917.52;;;5.38;69.84
24013;BME280;12220;50.194;18.948;2023-02-12T12:32:18;103913.91;;;5.37;69.92
24013;BME280;12220;50.194;18.948;2023-02-12T12:34:24;103905.77;;;5.37;69.92
24013;BME280;12220;50.194;18.948;2023-02-12T12:43:44;103915.70;;;5.40;69.92
24013;BME280;12220;50.194;18.948;2023-02-12T12:48:27;103919.36;;;5.45;70.14
24013;BME280;12220;50.194;18.948;2023-02-12T12:50:50;103918.45;;;5.48;70.08